Time;durP1;ratioP1;P1;durP2;ratioP2;P2;SDS_P1;SDS_P2;PMS_P1;PMS_P2;Temp;Humidity;BMP_temperature;BMP_pressure;BME280_temperature;BME280_humidity;BME280_pressure;Samples;Min_cycle;Max_cycle;Signal;HPM_P1;HPM_P2
2023/08/05 00:00:48;;;;;;;0.00;0.00;;;;;;;;;;7381890;19;20527;-73
2023/08/05 00:03:19;;;;;;;0.00;0.00;;;;;;;;;;7380789;19;20173;-73
2023/08/05 00:05:48;;;;;;;0.00;0.00;;;;;;;;;;7377658;19;20214;-74
2023/08/05 00:08:17;;;;;;;0.00;0.00;;;;;;;;;;7381105;19;20152;-73
2023/08/05 00:10:46;;;;;;;0.00;0.00;;;;;;;;;;7379043;19;20193;-73
2023/08/05 00:13:15;;;;;;;0.00;0.00;;;;;;;;;;7379965;19;20129;-73
2023/08/05 00:15:44;;;;;;;0.00;0.00;;;;;;;;;;7379217;19;20157;-74
2023/08/05 00:18:13;;;;;;;0.00;0.00;;;;;;;;;;7381550;19;20140;-73
2023/08/05 00:20:45;;;;;;;0.00;0.00;;;;;;;;;;7381461;19;20135;-74
2023/08/05 00:23:14;;;;;;;0.00;0.00;;;;;;;;;;7379280;19;20161;-73
2023/08/05 00:25:42;;;;;;;0.00;0.00;;;;;;;;;;7378018;19;20160;-73
2023/08/05 00:28:11;;;;;;;0.00;0.00;;;;;;;;;;7381105;19;20121;-75
2023/08/05 00:30:41;;;;;;;0.00;0.00;;;;;;;;;;7377329;19;20220;-73
2023/08/05 00:33:10;;;;;;;0.00;0.00;;;;;;;;;;7377931;19;20514;-73
2023/08/05 00:35:38;;;;;;;0.00;0.00;;;;;;;;;;7377894;19;20182;-74
2023/08/05 00:38:10;;;;;;;0.00;0.00;;;;;;;;;;7378917;19;20152;-73
2023/08/05 00:40:41;;;;;;;0.00;0.00;;;;;;;;;;7379827;19;20166;-73
2023/08/05 00:43:09;;;;;;;0.00;0.00;;;;;;;;;;7378333;19;20156;-73
2023/08/05 00:45:38;;;;;;;0.00;0.00;;;;;;;;;;7377816;19;20181;-73
2023/08/05 00:48:08;;;;;;;0.00;0.00;;;;;;;;;;7380187;19;20147;-74
2023/08/05 00:50:38;;;;;;;0.00;0.00;;;;;;;;;;7378318;19;20169;-73
2023/08/05 00:53:07;;;;;;;0.00;0.00;;;;;;;;;;7378943;19;20165;-73
2023/08/05 00:55:38;;;;;;;0.00;0.00;;;;;;;;;;7376250;19;20180;-73
2023/08/05 00:58:07;;;;;;;0.00;0.00;;;;;;;;;;7379304;19;20157;-73
2023/08/05 01:00:36;;;;;;;0.00;0.00;;;;;;;;;;7374313;19;20171;-73
2023/08/05 01:03:07;;;;;;;0.00;0.00;;;;;;;;;;7379687;19;20158;-73
2023/08/05 01:05:36;;;;;;;0.00;0.00;;;;;;;;;;7376918;19;20185;-74
2023/08/05 01:08:06;;;;;;;0.00;0.00;;;;;;;;;;7377231;19;20181;-73
2023/08/05 01:10:35;;;;;;;0.00;0.00;;;;;;;;;;7375924;19;20547;-73
2023/08/05 01:13:07;;;;;;;0.00;0.00;;;;;;;;;;7376704;19;20148;-73
2023/08/05 01:15:36;;;;;;;0.00;0.00;;;;;;;;;;7375000;19;20651;-73
2023/08/05 01:18:05;;;;;;;0.00;0.00;;;;;;;;;;7377539;19;20165;-74
2023/08/05 01:20:37;;;;;;;0.00;0.00;;;;;;;;;;7378118;19;20154;-72
2023/08/05 01:23:10;;;;;;;0.00;0.00;;;;;;;;;;7377220;19;20632;-72
2023/08/05 01:25:43;;;;;;;0.00;0.00;;;;;;;;;;7373732;19;20181;-74
2023/08/05 01:28:12;;;;;;;0.00;0.00;;;;;;;;;;7377624;19;20144;-73
2023/08/05 01:30:42;;;;;;;0.00;0.00;;;;;;;;;;7376601;19;20179;-73
2023/08/05 01:33:12;;;;;;;0.00;0.00;;;;;;;;;;7377002;19;20161;-73
2023/08/05 01:35:41;;;;;;;0.00;0.00;;;;;;;;;;7374497;19;20184;-73
2023/08/05 01:38:11;;;;;;;0.00;0.00;;;;;;;;;;7376863;19;20144;-73
2023/08/05 01:40:42;;;;;;;0.00;0.00;;;;;;;;;;7376925;19;20156;-73
2023/08/05 01:43:11;;;;;;;0.00;0.00;;;;;;;;;;7376012;19;20686;-73
2023/08/05 01:45:40;;;;;;;0.00;0.00;;;;;;;;;;7376088;19;20181;-73
2023/08/05 01:48:09;;;;;;;0.00;0.00;;;;;;;;;;7382865;19;20197;-73
2023/08/05 01:50:38;;;;;;;0.00;0.00;;;;;;;;;;7382508;19;20153;-73
2023/08/05 01:53:08;;;;;;;0.00;0.00;;;;;;;;;;7381879;19;20157;-72
2023/08/05 01:55:36;;;;;;;0.00;0.00;;;;;;;;;;7381844;19;20148;-73
2023/08/05 01:58:08;;;;;;;0.00;0.00;;;;;;;;;;7382377;19;20152;-73
2023/08/05 02:00:37;;;;;;;0.00;0.00;;;;;;;;;;7383478;19;20157;-73
2023/08/05 02:03:06;;;;;;;0.00;0.00;;;;;;;;;;7382056;19;20165;-73
2023/08/05 02:05:35;;;;;;;0.00;0.00;;;;;;;;;;7381988;19;20186;-72
2023/08/05 02:08:04;;;;;;;0.00;0.00;;;;;;;;;;7382098;19;20168;-73
2023/08/05 02:10:34;;;;;;;0.00;0.00;;;;;;;;;;7381830;19;20144;-73
2023/08/05 02:13:03;;;;;;;0.00;0.00;;;;;;;;;;7382179;19;20152;-73
2023/08/05 02:15:35;;;;;;;0.00;0.00;;;;;;;;;;7379881;19;20180;-72
2023/08/05 02:18:04;;;;;;;0.00;0.00;;;;;;;;;;7381840;19;20165;-72
2023/08/05 02:20:33;;;;;;;0.00;0.00;;;;;;;;;;7387910;19;20192;-72
2023/08/05 02:23:02;;;;;;;0.00;0.00;;;;;;;;;;7391147;19;20188;-74
2023/08/05 02:25:31;;;;;;;0.00;0.00;;;;;;;;;;7390891;19;20157;-71
2023/08/05 02:28:00;;;;;;;0.00;0.00;;;;;;;;;;7392644;19;20157;-71
2023/08/05 02:30:29;;;;;;;0.00;0.00;;;;;;;;;;7391983;19;20145;-71
2023/08/05 02:33:00;;;;;;;0.00;0.00;;;;;;;;;;7390699;19;20192;-71
2023/08/05 02:35:29;;;;;;;0.00;0.00;;;;;;;;;;7392453;19;20141;-71
2023/08/05 02:37:58;;;;;;;0.00;0.00;;;;;;;;;;7391602;19;20160;-72
2023/08/05 02:40:27;;;;;;;0.00;0.00;;;;;;;;;;7394013;19;20141;-70
2023/08/05 02:42:56;;;;;;;0.00;0.00;;;;;;;;;;7391696;19;20148;-72
2023/08/05 02:45:25;;;;;;;0.00;0.00;;;;;;;;;;7391120;19;20136;-73
2023/08/05 02:47:53;;;;;;;0.00;0.00;;;;;;;;;;7389890;19;20152;-72
2023/08/05 02:50:25;;;;;;;0.00;0.00;;;;;;;;;;7388445;19;20183;-71
2023/08/05 02:52:54;;;;;;;0.00;0.00;;;;;;;;;;7389038;19;20206;-73
2023/08/05 02:55:23;;;;;;;0.00;0.00;;;;;;;;;;7389541;19;20148;-71
2023/08/05 02:57:51;;;;;;;0.00;0.00;;;;;;;;;;7391576;19;20157;-70
2023/08/05 03:00:20;;;;;;;0.00;0.00;;;;;;;;;;7392582;19;20145;-71
2023/08/05 03:02:49;;;;;;;0.00;0.00;;;;;;;;;;7390601;19;20185;-71
2023/08/05 03:05:18;;;;;;;0.00;0.00;;;;;;;;;;7390172;19;20152;-73
2023/08/05 03:07:50;;;;;;;0.00;0.00;;;;;;;;;;7390410;19;20148;-71
2023/08/05 03:10:19;;;;;;;0.00;0.00;;;;;;;;;;7389901;19;20156;-72
2023/08/05 03:12:49;;;;;;;0.00;0.00;;;;;;;;;;7389015;19;20184;-71
2023/08/05 03:15:18;;;;;;;0.00;0.00;;;;;;;;;;7390172;19;20157;-72
2023/08/05 03:17:46;;;;;;;0.00;0.00;;;;;;;;;;7392164;19;20141;-71
2023/08/05 03:20:28;;;;;;;0.00;0.00;;;;;;;;;;7388939;19;20160;-72
2023/08/05 03:23:04;;;;;;;0.00;0.00;;;;;;;;;;7388614;19;20180;-75
2023/08/05 03:25:35;;;;;;;0.00;0.00;;;;;;;;;;7388300;19;20180;-71
2023/08/05 03:28:07;;;;;;;0.00;0.00;;;;;;;;;;7389366;19;20181;-72
2023/08/05 03:30:40;;;;;;;0.00;0.00;;;;;;;;;;7389375;19;20172;-72
2023/08/05 03:33:11;;;;;;;0.00;0.00;;;;;;;;;;7388005;19;20184;-70
2023/08/05 03:35:44;;;;;;;0.00;0.00;;;;;;;;;;7390584;19;20141;-70
2023/08/05 03:38:19;;;;;;;0.00;0.00;;;;;;;;;;7390901;19;20150;-72
2023/08/05 03:40:48;;;;;;;0.00;0.00;;;;;;;;;;7391242;19;20173;-73
2023/08/05 03:43:17;;;;;;;0.00;0.00;;;;;;;;;;7389581;19;20176;-72
2023/08/05 03:45:51;;;;;;;0.00;0.00;;;;;;;;;;7389532;19;20863;-72
2023/08/05 03:48:21;;;;;;;0.00;0.00;;;;;;;;;;7390236;19;20153;-73
2023/08/05 03:50:50;;;;;;;0.00;0.00;;;;;;;;;;7389911;19;20168;-73
2023/08/05 03:53:22;;;;;;;0.00;0.00;;;;;;;;;;7387736;19;20188;-69
2023/08/05 03:55:51;;;;;;;0.00;0.00;;;;;;;;;;7388613;19;20509;-69
2023/08/05 03:58:23;;;;;;;0.00;0.00;;;;;;;;;;7389245;19;20156;-72
2023/08/05 04:00:54;;;;;;;0.00;0.00;;;;;;;;;;7389821;19;20177;-70
2023/08/05 04:03:23;;;;;;;0.00;0.00;;;;;;;;;;7387637;19;20180;-70
2023/08/05 04:05:54;;;;;;;0.00;0.00;;;;;;;;;;7387834;19;20157;-74
2023/08/05 04:08:26;;;;;;;0.00;0.00;;;;;;;;;;7387757;19;20149;-71
2023/08/05 04:10:56;;;;;;;0.00;0.00;;;;;;;;;;7390812;19;20212;-71
2023/08/05 04:13:28;;;;;;;0.00;0.00;;;;;;;;;;7387074;19;20647;-71
2023/08/05 04:15:59;;;;;;;0.00;0.00;;;;;;;;;;7389046;19;20160;-72
2023/08/05 04:18:27;;;;;;;0.00;0.00;;;;;;;;;;7388769;19;20618;-71
2023/08/05 04:20:57;;;;;;;0.00;0.00;;;;;;;;;;7387777;19;20160;-72
2023/08/05 04:23:31;;;;;;;0.00;0.00;;;;;;;;;;7388148;19;20180;-70
2023/08/05 04:26:00;;;;;;;0.00;0.00;;;;;;;;;;7387661;19;20148;-70
2023/08/05 04:28:29;;;;;;;0.00;0.00;;;;;;;;;;7390795;19;20133;-71
2023/08/05 04:30:58;;;;;;;0.00;0.00;;;;;;;;;;7388942;19;20137;-71
2023/08/05 04:33:28;;;;;;;0.00;0.00;;;;;;;;;;7386108;19;20191;-72
2023/08/05 04:35:57;;;;;;;0.00;0.00;;;;;;;;;;7387136;19;20151;-71
2023/08/05 04:38:31;;;;;;;0.00;0.00;;;;;;;;;;7388122;19;20147;-73
2023/08/05 04:41:00;;;;;;;0.00;0.00;;;;;;;;;;7389856;19;20133;-70
2023/08/05 04:43:29;;;;;;;0.00;0.00;;;;;;;;;;7388087;19;20176;-71
2023/08/05 04:45:58;;;;;;;0.00;0.00;;;;;;;;;;7386923;19;20160;-72
2023/08/05 04:48:27;;;;;;;0.00;0.00;;;;;;;;;;7387906;19;20161;-71
2023/08/05 04:50:58;;;;;;;0.00;0.00;;;;;;;;;;7385988;19;20160;-70
2023/08/05 04:53:27;;;;;;;0.00;0.00;;;;;;;;;;7388582;19;20159;-71
2023/08/05 04:55:58;;;;;;;0.00;0.00;;;;;;;;;;7388076;19;20137;-68
2023/08/05 04:58:27;;;;;;;0.00;0.00;;;;;;;;;;7387839;19;20153;-71
2023/08/05 05:00:58;;;;;;;0.00;0.00;;;;;;;;;;7388239;19;20161;-69
2023/08/05 05:03:28;;;;;;;0.00;0.00;;;;;;;;;;7384776;19;20176;-72
2023/08/05 05:05:57;;;;;;;0.00;0.00;;;;;;;;;;7386352;19;20149;-70
2023/08/05 05:08:27;;;;;;;0.00;0.00;;;;;;;;;;7387243;19;20156;-72
2023/08/05 05:10:59;;;;;;;0.00;0.00;;;;;;;;;;7387974;19;20167;-71
2023/08/05 05:13:28;;;;;;;0.00;0.00;;;;;;;;;;7385204;19;20172;-71
2023/08/05 05:15:56;;;;;;;0.00;0.00;;;;;;;;;;7386513;19;20160;-69
2023/08/05 05:18:25;;;;;;;0.00;0.00;;;;;;;;;;7388034;19;20141;-71
2023/08/05 05:20:54;;;;;;;0.00;0.00;;;;;;;;;;7396987;19;20179;-71
2023/08/05 05:23:23;;;;;;;0.00;0.00;;;;;;;;;;7394036;19;20639;-71
2023/08/05 05:25:52;;;;;;;0.00;0.00;;;;;;;;;;7393680;19;20194;-71
2023/08/05 05:28:24;;;;;;;0.00;0.00;;;;;;;;;;7393915;19;20174;-71
2023/08/05 05:30:53;;;;;;;0.00;0.00;;;;;;;;;;7394010;19;20169;-73
2023/08/05 05:33:21;;;;;;;0.00;0.00;;;;;;;;;;7393527;19;20149;-69
2023/08/05 05:35:52;;;;;;;0.00;0.00;;;;;;;;;;7396075;19;20152;-70
2023/08/05 05:38:21;;;;;;;0.00;0.00;;;;;;;;;;7397423;19;20141;-74
2023/08/05 05:40:50;;;;;;;0.00;0.00;;;;;;;;;;7397093;19;20149;-72
2023/08/05 05:43:19;;;;;;;0.00;0.00;;;;;;;;;;7393253;19;20193;-72
2023/08/05 05:45:50;;;;;;;0.00;0.00;;;;;;;;;;7394557;19;20162;-72
2023/08/05 05:48:19;;;;;;;0.00;0.00;;;;;;;;;;7398623;19;20146;-72
2023/08/05 05:50:48;;;;;;;0.00;0.00;;;;;;;;;;7397183;19;20137;-69
2023/08/05 05:53:17;;;;;;;0.00;0.00;;;;;;;;;;7395993;19;20149;-71
2023/08/05 05:55:46;;;;;;;0.00;0.00;;;;;;;;;;7396125;19;20140;-70
2023/08/05 05:58:15;;;;;;;0.00;0.00;;;;;;;;;;7395845;19;20153;-69
2023/08/05 06:00:44;;;;;;;0.00;0.00;;;;;;;;;;7395186;19;20152;-70
2023/08/05 06:03:16;;;;;;;0.00;0.00;;;;;;;;;;7393307;19;20179;-73
2023/08/05 06:05:45;;;;;;;0.00;0.00;;;;;;;;;;7394581;19;20144;-71
2023/08/05 06:08:14;;;;;;;0.00;0.00;;;;;;;;;;7396186;19;20172;-72
2023/08/05 06:10:43;;;;;;;0.00;0.00;;;;;;;;;;7392843;19;20172;-70
2023/08/05 06:13:11;;;;;;;0.00;0.00;;;;;;;;;;7393680;19;20161;-71
2023/08/05 06:15:43;;;;;;;0.00;0.00;;;;;;;;;;7395233;19;20140;-70
2023/08/05 06:18:12;;;;;;;0.00;0.00;;;;;;;;;;7395813;19;20156;-73
2023/08/05 06:20:44;;;;;;;0.00;0.00;;;;;;;;;;7393948;19;20157;-69
2023/08/05 06:23:12;;;;;;;0.00;0.00;;;;;;;;;;7392694;19;20157;-71
2023/08/05 06:25:41;;;;;;;0.00;0.00;;;;;;;;;;7391990;19;20156;-70
2023/08/05 06:28:10;;;;;;;0.00;0.00;;;;;;;;;;7394641;19;20153;-70
2023/08/05 06:30:44;;;;;;;0.00;0.00;;;;;;;;;;7391975;19;20176;-69
2023/08/05 06:33:13;;;;;;;0.00;0.00;;;;;;;;;;7391929;19;20160;-69
2023/08/05 06:35:45;;;;;;;0.00;0.00;;;;;;;;;;7390884;19;20161;-70
2023/08/05 06:38:14;;;;;;;0.00;0.00;;;;;;;;;;7393529;19;20145;-71
2023/08/05 06:40:44;;;;;;;0.00;0.00;;;;;;;;;;7394550;19;20153;-70
2023/08/05 06:43:13;;;;;;;0.00;0.00;;;;;;;;;;7392494;19;20160;-73
2023/08/05 06:45:41;;;;;;;0.00;0.00;;;;;;;;;;7392110;19;20141;-74
2023/08/05 06:48:10;;;;;;;0.00;0.00;;;;;;;;;;7394298;19;20141;-71
2023/08/05 06:50:39;;;;;;;0.00;0.00;;;;;;;;;;7392915;19;20141;-73
2023/08/05 06:53:11;;;;;;;0.00;0.00;;;;;;;;;;7391353;19;20188;-73
2023/08/05 06:55:39;;;;;;;0.00;0.00;;;;;;;;;;7390667;19;20531;-71
2023/08/05 06:58:08;;;;;;;0.00;0.00;;;;;;;;;;7392841;19;20157;-70
2023/08/05 07:00:37;;;;;;;0.00;0.00;;;;;;;;;;7392172;19;20137;-71
2023/08/05 07:03:06;;;;;;;0.00;0.00;;;;;;;;;;7387824;19;20184;-70
2023/08/05 07:05:36;;;;;;;0.00;0.00;;;;;;;;;;7388026;19;20593;-70
2023/08/05 07:08:05;;;;;;;0.00;0.00;;;;;;;;;;7390612;19;20187;-72
2023/08/05 07:10:37;;;;;;;0.00;0.00;;;;;;;;;;7390574;19;20149;-71
2023/08/05 07:13:06;;;;;;;0.00;0.00;;;;;;;;;;7390157;19;20160;-71
2023/08/05 07:15:38;;;;;;;0.00;0.00;;;20.20;99.90;;;;;;7390225;19;20152;-71
2023/08/05 07:18:07;;;;;;;0.00;0.00;;;;;;;;;;7391980;19;20141;-71
2023/08/05 07:20:35;;;;;;;0.00;0.00;;;21.30;99.90;;;;;;7388949;19;20161;-70
2023/08/05 07:23:04;;;;;;;0.00;0.00;;;;;;;;;;7389385;19;20164;-75
2023/08/05 07:25:36;;;;;;;0.00;0.00;;;21.60;99.90;;;;;;7387890;19;20153;-75
2023/08/05 07:28:04;;;;;;;0.00;0.00;;;22.00;99.90;;;;;;7390267;19;20161;-77
2023/08/05 07:30:33;;;;;;;0.00;0.00;;;22.10;99.90;;;;;;7390689;19;20137;-71
2023/08/05 07:33:04;;;;;;;0.00;0.00;;;;;;;;;;7389726;19;20638;-74
2023/08/05 07:35:33;;;;;;;0.00;0.00;;;22.20;99.90;;;;;;7387446;19;20160;-69
2023/08/05 07:38:04;;;;;;;0.00;0.00;;;22.30;99.90;;;;;;7389789;19;20141;-74
2023/08/05 07:40:33;;;;;;;0.00;0.00;;;;;;;;;;7389183;19;20176;-71
2023/08/05 07:43:05;;;;;;;0.00;0.00;;;22.50;99.90;;;;;;7386264;19;20169;-70
2023/08/05 07:45:36;;;;;;;0.00;0.00;;;22.50;99.90;;;;;;7387635;19;20212;-69
2023/08/05 07:48:08;;;;;;;0.00;0.00;;;22.50;99.90;;;;;;7391273;19;20161;-69
2023/08/05 07:50:37;;;;;;;0.00;0.00;;;22.50;99.90;;;;;;7390589;19;20487;-71
2023/08/05 07:53:06;;;;;;;0.00;0.00;;;22.50;99.90;;;;;;7389170;19;20156;-69
2023/08/05 07:55:36;;;;;;;0.00;0.00;;;22.60;99.90;;;;;;7388876;19;20181;-70
2023/08/05 07:58:07;;;;;;;0.00;0.00;;;22.70;99.90;;;;;;7391974;19;20629;-70
2023/08/05 08:00:36;;;;;;;0.00;0.00;;;22.80;99.90;;;;;;7390772;19;20137;-68
2023/08/05 08:03:05;;;;;;;0.00;0.00;;;22.90;99.90;;;;;;7389986;19;20163;-70
2023/08/05 08:05:33;;;;;;;0.00;0.00;;;22.80;99.90;;;;;;7389051;19;20148;-71
2023/08/05 08:08:02;;;;;;;0.00;0.00;;;22.80;99.90;;;;;;7392530;19;20146;-70
2023/08/05 08:10:30;;;;;;;0.00;0.00;;;22.90;99.90;;;;;;7390286;19;20158;-69
2023/08/05 08:13:01;;;;;;;0.00;0.00;;;23.00;99.90;;;;;;7388802;19;20149;-72
2023/08/05 08:15:32;;;;;;;0.00;0.00;;;23.00;99.90;;;;;;7389102;19;20133;-72
2023/08/05 08:18:01;;;;;;;0.00;0.00;;;22.90;99.90;;;;;;7389066;19;20152;-70
2023/08/05 08:20:29;;;;;;;0.00;0.00;;;22.90;99.90;;;;;;7389796;19;20137;-69
2023/08/05 08:22:58;;;;;;;0.00;0.00;;;23.00;99.90;;;;;;7389531;19;20156;-72
2023/08/05 08:25:26;;;;;;;0.00;0.00;;;23.10;99.90;;;;;;7389000;19;20150;-71
2023/08/05 08:27:55;;;;;;;0.00;0.00;;;;;;;;;;7390713;19;20151;-71
2023/08/05 08:30:24;;;;;;;0.00;0.00;;;23.30;99.90;;;;;;7388741;19;20161;-71
2023/08/05 08:32:55;;;;;;;0.00;0.00;;;23.80;99.90;;;;;;7387017;19;20187;-71
2023/08/05 08:35:24;;;;;;;0.00;0.00;;;23.70;99.90;;;;;;7386903;19;20152;-70
2023/08/05 08:37:53;;;;;;;0.00;0.00;;;23.80;99.90;;;;;;7388699;19;20161;-72
2023/08/05 08:40:22;;;;;;;0.00;0.00;;;23.90;99.90;;;;;;7388872;19;20173;-69
2023/08/05 08:42:52;;;;;;;0.00;0.00;;;;;;;;;;7386137;19;20177;-70
2023/08/05 08:45:23;;;;;;;0.00;0.00;;;;;;;;;;7388564;19;20137;-74
2023/08/05 08:47:52;;;;;;;0.00;0.00;;;;;;;;;;7390018;19;20144;-69
2023/08/05 08:50:24;;;;;;;0.00;0.00;;;;;;;;;;7386427;19;20205;-70
2023/08/05 08:52:54;;;;;;;0.00;0.00;;;;;;;;;;7387886;19;20169;-70
2023/08/05 08:55:23;;;;;;;0.00;0.00;;;;;;;;;;7394518;19;20160;-71
2023/08/05 08:57:52;;;;;;;0.00;0.00;;;;;;;;;;7393446;19;20153;-73
2023/08/05 09:00:21;;;;;;;0.00;0.00;;;;;;;;;;7390360;19;20136;-70
2023/08/05 09:02:51;;;;;;;0.00;0.00;;;;;;;;;;7392351;19;20172;-70
2023/08/05 09:05:20;;;;;;;0.00;0.00;;;;;;;;;;7394322;19;20152;-69
2023/08/05 09:07:52;;;;;;;0.00;0.00;;;;;;;;;;7395156;19;20164;-72
2023/08/05 09:10:23;;;;;;;0.00;0.00;;;;;;;;;;7395313;19;20148;-69
2023/08/05 09:12:52;;;;;;;0.00;0.00;;;;;;;;;;7389481;19;20212;-69
2023/08/05 09:15:23;;;;;;;0.00;0.00;;;;;;;;;;7392237;19;20149;-68
2023/08/05 09:17:52;;;;;;;0.00;0.00;;;;;;;;;;7392896;19;20160;-68
2023/08/05 09:20:24;;;;;;;0.00;0.00;;;;;;;;;;7393041;19;20184;-70
2023/08/05 09:23:01;;;;;;;0.00;0.00;;;;;;;;;;7391751;19;20277;-71
2023/08/05 09:25:30;;;;;;;0.00;0.00;;;;;;;;;;7394412;19;20137;-69
2023/08/05 09:28:00;;;;;;;0.00;0.00;;;;;;;;;;7394038;19;20171;-68
2023/08/05 09:30:29;;;;;;;0.00;0.00;;;;;;;;;;7395499;19;20133;-70
2023/08/05 09:32:58;;;;;;;0.00;0.00;;;;;;;;;;7392213;19;20181;-70
2023/08/05 09:35:27;;;;;;;0.00;0.00;;;;;;;;;;7394073;19;20750;-70
2023/08/05 09:37:56;;;;;;;0.00;0.00;;;;;;;;;;7394358;19;20141;-71
2023/08/05 09:40:32;;;;;;;0.00;0.00;;;;;;;;;;7394017;19;20156;-69
2023/08/05 09:43:03;;;;;;;0.00;0.00;;;;;;;;;;7393193;19;20169;-71
2023/08/05 09:45:32;;;;;;;0.00;0.00;;;;;;;;;;7391775;19;20178;-70
2023/08/05 09:48:04;;;;;;;0.00;0.00;;;;;;;;;;7393434;19;20830;-69
2023/08/05 09:50:36;;;;;;;0.00;0.00;;;;;;;;;;7394189;19;20137;-69
2023/08/05 09:53:07;;;;;;;0.00;0.00;;;;;;;;;;7390760;19;20183;-71
2023/08/05 09:55:39;;;;;;;0.00;0.00;;;;;;;;;;7392358;19;20140;-70
2023/08/05 09:58:09;;;;;;;0.00;0.00;;;;;;;;;;7393149;19;20145;-71
2023/08/05 10:00:40;;;;;;;0.00;0.00;;;;;;;;;;7393296;19;20141;-70
2023/08/05 10:03:09;;;;;;;0.00;0.00;;;;;;;;;;7391581;19;20181;-69
2023/08/05 10:05:41;;;;;;;0.00;0.00;;;;;;;;;;7390090;19;20176;-69
2023/08/05 10:08:10;;;;;;;0.00;0.00;;;;;;;;;;7393684;19;20152;-69
2023/08/05 10:10:43;;;;;;;0.00;0.00;;;;;;;;;;7392364;19;20538;-70
2023/08/05 10:13:16;;;;;;;0.00;0.00;;;;;;;;;;7390463;19;20180;-71
2023/08/05 10:15:46;;;;;;;0.00;0.00;;;;;;;;;;7392000;19;20152;-69
2023/08/05 10:18:17;;;;;;;0.00;0.00;;;;;;;;;;7391968;19;20153;-69
2023/08/05 10:20:51;;;;;;;0.00;0.00;;;;;;;;;;7390904;19;20177;-70
2023/08/05 10:23:20;;;;;;;0.00;0.00;;;;;;;;;;7385048;19;20169;-69
2023/08/05 10:25:53;;;;;;;0.00;0.00;;;;;;;;;;7389298;19;20234;-71
2023/08/05 10:28:38;;;;;;;0.00;0.00;;;;;;;;;;7386303;19;20161;-71
2023/08/05 10:31:09;;;;;;;0.00;0.00;;;;;;;;;;7386546;19;20148;-70
2023/08/05 10:34:03;;;;;;;0.00;0.00;;;;;;;;;;7390161;19;20204;-70
2023/08/05 10:36:43;;;;;;;0.00;0.00;;;;;;;;;;7390080;19;20148;-69
2023/08/05 10:39:26;;;;;;;0.00;0.00;;;;;;;;;;7392095;19;20215;-70
2023/08/05 10:41:58;;;;;;;0.00;0.00;;;;;;;;;;7390651;19;20176;-69
2023/08/05 10:44:37;;;;;;;0.00;0.00;;;;;;;;;;7390394;19;20152;-71
2023/08/05 10:47:07;;;;;;;0.00;0.00;;;;;;;;;;7390684;19;20286;-69
2023/08/05 10:49:36;;;;;;;0.00;0.00;;;;;;;;;;7392001;19;20153;-72
2023/08/05 10:52:05;;;;;;;0.00;0.00;;;;;;;;;;7390137;19;20180;-71
2023/08/05 10:54:34;;;;;;;0.00;0.00;;;;;;;;;;7390189;19;20652;-70
2023/08/05 10:57:15;;;;;;;0.00;0.00;;;;;;;;;;7389797;19;20156;-69
2023/08/05 10:59:58;;;;;;;0.00;0.00;;;;;;;;;;7391934;19;20156;-70
2023/08/05 11:02:27;;;;;;;0.00;0.00;;;;;;;;;;7391744;19;20176;-70
2023/08/05 11:05:09;;;;;;;0.00;0.00;;;;;;;;;;7390675;19;20161;-73
2023/08/05 11:07:39;;;;;;;0.00;0.00;;;;;;;;;;7392461;19;20577;-69
2023/08/05 11:10:09;;;;;;;0.00;0.00;;;;;;;;;;7391116;19;20156;-70
2023/08/05 11:12:42;;;;;;;0.00;0.00;;;;;;;;;;7389650;19;20176;-71
2023/08/05 11:15:11;;;;;;;0.00;0.00;;;;;;;;;;7388044;19;20177;-71
2023/08/05 11:17:55;;;;;;;0.00;0.00;;;;;;;;;;7390004;19;20149;-70
2023/08/05 11:20:33;;;;;;;0.00;0.00;;;;;;;;;;7390414;19;20148;-69
2023/08/05 11:23:02;;;;;;;0.00;0.00;;;;;;;;;;7390086;19;20183;-70
2023/08/05 11:25:32;;;;;;;0.00;0.00;;;;;;;;;;7389390;19;20157;-72
2023/08/05 11:28:03;;;;;;;0.00;0.00;;;;;;;;;;7390508;19;20148;-70
2023/08/05 11:30:32;;;;;;;0.00;0.00;;;;;;;;;;7390283;19;20152;-70
2023/08/05 11:33:02;;;;;;;0.00;0.00;;;;;;;;;;7387972;19;20176;-68
2023/08/05 11:35:31;;;;;;;0.00;0.00;;;;;;;;;;7389591;19;20152;-70
2023/08/05 11:38:00;;;;;;;0.00;0.00;;;;;;;;;;7389646;19;20156;-72
2023/08/05 11:40:29;;;;;;;0.00;0.00;;;;;;;;;;7390265;19;20152;-70
2023/08/05 11:42:58;;;;;;;0.00;0.00;;;;;;;;;;7390186;19;20157;-72
2023/08/05 11:45:30;;;;;;;0.00;0.00;;;;;;;;;;7390738;19;20157;-71
2023/08/05 11:47:59;;;;;;;0.00;0.00;;;;;;;;;;7393108;19;20164;-70
2023/08/05 11:50:36;;;;;;;0.00;0.00;;;;;;;;;;7391317;19;20141;-71
2023/08/05 11:53:08;;;;;;;0.00;0.00;;;;;;;;;;7386111;19;20196;-72
2023/08/05 11:55:39;;;;;;;0.00;0.00;;;;;;;;;;7387791;19;20170;-70
2023/08/05 11:58:08;;;;;;;0.00;0.00;;;;;;;;;;7389925;19;20144;-70
2023/08/05 12:00:40;;;;;;;0.00;0.00;;;;;;;;;;7388818;19;20181;-71
2023/08/05 12:03:09;;;;;;;0.00;0.00;;;;;;;;;;7387627;19;20223;-72
2023/08/05 12:05:38;;;;;;;0.00;0.00;;;;;;;;;;7388324;19;20149;-70
2023/08/05 12:08:07;;;;;;;0.00;0.00;;;;;;;;;;7388004;19;20153;-71
2023/08/05 12:10:36;;;;;;;0.00;0.00;;;;;;;;;;7388738;19;20148;-72
2023/08/05 12:13:06;;;;;;;0.00;0.00;;;;;;;;;;7385097;19;20223;-71
2023/08/05 12:15:36;;;;;;;0.00;0.00;;;;;;;;;;7386600;19;20152;-71
2023/08/05 12:18:08;;;;;;;0.00;0.00;;;;;;;;;;7387315;19;20157;-69
2023/08/05 12:20:37;;;;;;;0.00;0.00;;;;;;;;;;7389204;19;20137;-71
2023/08/05 12:23:08;;;;;;;0.00;0.00;;;;;;;;;;7387630;19;20178;-71
2023/08/05 12:25:36;;;;;;;0.00;0.00;;;;;;;;;;7389175;19;20148;-70
2023/08/05 12:28:05;;;;;;;0.00;0.00;;;;;;;;;;7388859;19;20145;-70
2023/08/05 12:30:34;;;;;;;0.00;0.00;;;;;;;;;;7387780;19;20156;-70
2023/08/05 12:33:05;;;;;;;0.00;0.00;;;;;;;;;;7386483;19;20663;-69
2023/08/05 12:35:36;;;;;;;0.00;0.00;;;;;;;;;;7386221;19;20152;-69
2023/08/05 12:38:05;;;;;;;0.00;0.00;;;;;;;;;;7387383;19;20184;-70
2023/08/05 12:40:34;;;;;;;0.00;0.00;;;;;;;;;;7388090;19;20189;-69
2023/08/05 12:43:03;;;;;;;0.00;0.00;;;;;;;;;;7385731;19;20195;-67
2023/08/05 12:45:32;;;;;;;0.00;0.00;;;;;;;;;;7386347;19;20156;-68
2023/08/05 12:48:01;;;;;;;0.00;0.00;;;;;;;;;;7388380;19;20184;-70
2023/08/05 12:50:30;;;;;;;0.00;0.00;;;;;;;;;;7387073;19;20179;-70
2023/08/05 12:53:02;;;;;;;0.00;0.00;;;;;;;;;;7385366;19;20180;-70
2023/08/05 12:55:31;;;;;;;0.00;0.00;;;;;;;;;;7386459;19;20160;-69
2023/08/05 12:58:00;;;;;;;0.00;0.00;;;;;;;;;;7388304;19;20156;-71
2023/08/05 13:00:29;;;;;;;0.00;0.00;;;;;;;;;;7387687;19;20149;-70
2023/08/05 13:02:58;;;;;;;0.00;0.00;;;;;;;;;;7385693;19;20180;-70
2023/08/05 13:05:27;;;;;;;0.00;0.00;;;;;;;;;;7384716;19;20167;-69
2023/08/05 13:07:56;;;;;;;0.00;0.00;;;;;;;;;;7386903;19;20149;-74
2023/08/05 13:10:28;;;;;;;0.00;0.00;;;;;;;;;;7385628;19;20173;-69
2023/08/05 13:12:57;;;;;;;0.00;0.00;;;;;;;;;;7384654;19;20176;-70
2023/08/05 13:15:25;;;;;;;0.00;0.00;;;;;;;;;;7385328;19;20608;-68
2023/08/05 13:17:54;;;;;;;0.00;0.00;;;;;;;;;;7386005;19;20152;-70
2023/08/05 13:20:23;;;;;;;0.00;0.00;;;;;;;;;;7385858;19;20150;-67
2023/08/05 13:22:52;;;;;;;0.00;0.00;;;;;;;;;;7384524;19;20243;-67
2023/08/05 13:25:21;;;;;;;0.00;0.00;;;;;;;;;;7384280;19;20177;-71
2023/08/05 13:27:53;;;;;;;0.00;0.00;;;;;;;;;;7386322;19;20153;-69
2023/08/05 13:30:22;;;;;;;0.00;0.00;;;;;;;;;;7385950;19;20145;-69
2023/08/05 13:32:51;;;;;;;0.00;0.00;;;;;;;;;;7385231;19;20172;-70
2023/08/05 13:35:20;;;;;;;0.00;0.00;;;;;;;;;;7381882;19;20156;-70
2023/08/05 13:37:49;;;;;;;0.00;0.00;;;;;;;;;;7383808;19;20161;-68
2023/08/05 13:40:18;;;;;;;0.00;0.00;;;;;;;;;;7389467;19;20133;-72
2023/08/05 13:42:46;;;;;;;0.00;0.00;;;;;;;;;;7393490;19;20157;-71
2023/08/05 13:45:18;;;;;;;0.00;0.00;;;;;;;;;;7390145;19;20141;-70
2023/08/05 13:47:47;;;;;;;0.00;0.00;;;;;;;;;;7394921;19;20145;-70
2023/08/05 13:50:18;;;;;;;0.00;0.00;;;;;;;;;;7393788;19;20137;-69
2023/08/05 13:52:47;;;;;;;0.00;0.00;;;;;;;;;;7393863;19;20157;-73
2023/08/05 13:55:16;;;;;;;0.00;0.00;;;;;;;;;;7391380;19;20149;-69
2023/08/05 13:57:45;;;;;;;0.00;0.00;;;;;;;;;;7393557;19;20176;-70
2023/08/05 14:00:14;;;;;;;0.00;0.00;;;;;;;;;;7393304;19;20174;-70
2023/08/05 14:02:46;;;;;;;0.00;0.00;;;;;;;;;;7390580;19;20177;-70
2023/08/05 14:05:15;;;;;;;0.00;0.00;;;;;;;;;;7391588;19;20172;-72
2023/08/05 14:07:44;;;;;;;0.00;0.00;;;;;;;;;;7391812;19;20187;-71
2023/08/05 14:10:13;;;;;;;0.00;0.00;;;;;;;;;;7390792;19;20274;-70
2023/08/05 14:12:42;;;;;;;0.00;0.00;;;;;;;;;;7390907;19;20202;-70
2023/08/05 14:15:11;;;;;;;0.00;0.00;;;;;;;;;;7389600;19;20148;-70
2023/08/05 14:17:40;;;;;;;0.00;0.00;;;;;;;;;;7393566;19;20157;-69
2023/08/05 14:20:13;;;;;;;0.00;0.00;;;;;;;;;;7393594;19;20161;-68
2023/08/05 14:22:42;;;;;;;0.00;0.00;;;;;;;;;;7390538;19;20176;-71
2023/08/05 14:25:11;;;;;;;0.00;0.00;;;;;;;;;;7392404;19;20188;-70
2023/08/05 14:27:40;;;;;;;0.00;0.00;;;;;;;;;;7392081;19;20144;-70
2023/08/05 14:30:10;;;;;;;0.00;0.00;;;;;;;;;;7391165;19;20153;-68
2023/08/05 14:32:39;;;;;;;0.00;0.00;;;;;;;;;;7392517;19;20161;-68
2023/08/05 14:35:08;;;;;;;0.00;0.00;;;;;;;;;;7389691;19;20160;-70
2023/08/05 14:37:39;;;;;;;0.00;0.00;;;;;;;;;;7392659;19;20258;-72
2023/08/05 14:40:09;;;;;;;0.00;0.00;;;;;;;;;;7393802;19;20159;-72
2023/08/05 14:42:38;;;;;;;0.00;0.00;;;;;;;;;;7391318;19;20165;-69
2023/08/05 14:45:08;;;;;;;0.00;0.00;;;;;;;;;;7391910;19;20149;-69
2023/08/05 14:47:37;;;;;;;0.00;0.00;;;;;;;;;;7391309;19;20156;-70